Villa General Mitre, Argentina
Current Conditions -  °F | °C
As of 7:00 PM on Thursday 23 Oct 2014 (Local Time) from SACO Reporting Station
Few Clouds Few Clouds  
Wind Chill: 30°   Ceiling: Unl
Heat Index: 30°   Visibility: 6mi
Dew Point: 12°   Wind: 13mph
Humidity: 33%   Direction: 50°NE
Pressure: 29.91"   Gusts: NA
Location:  30.76°S, 63.89°W
Report Text: SACO 232200Z 05011KT 9999 FEW030 FEW20030/12 Q1013
Loading
Personal Weather Stations






























Interactive Weather Map
Tropical Storm Tracking
New forecast layout! Learn more

10-Day Weather Forecast

Advertisements
Track Severe Weather on mobile